createdAt,value
2019-03-31T00:04:23.065Z,8.60
2019-03-31T00:10:27.752Z,8.50
2019-03-31T00:16:32.321Z,8.30
2019-03-31T00:22:36.940Z,8.10
2019-03-31T00:28:41.494Z,8.10
2019-03-31T00:34:46.210Z,8.00
2019-03-31T00:40:50.767Z,8.00
2019-03-31T00:46:55.597Z,8.00
2019-03-31T00:53:00.406Z,7.90
2019-03-31T00:59:05.107Z,7.80
2019-03-31T01:05:10.150Z,7.60
2019-03-31T01:11:19.796Z,7.60
2019-03-31T01:17:24.487Z,7.50
2019-03-31T01:23:29.052Z,7.50
2019-03-31T01:29:33.943Z,7.40
2019-03-31T01:35:38.567Z,7.30
2019-03-31T01:41:43.468Z,7.30
2019-03-31T01:47:48.108Z,7.30
2019-03-31T01:53:52.798Z,7.20
2019-03-31T01:59:57.413Z,7.20
2019-03-31T02:06:02.114Z,7.00
2019-03-31T02:12:06.856Z,6.80
2019-03-31T02:18:11.548Z,6.80
2019-03-31T02:24:16.125Z,6.70
2019-03-31T02:30:20.835Z,6.70
2019-03-31T02:36:25.375Z,6.60
2019-03-31T02:42:30.228Z,6.50
2019-03-31T02:48:34.839Z,6.40
2019-03-31T02:54:39.487Z,6.40
2019-03-31T03:00:44.864Z,6.30
2019-03-31T03:06:53.005Z,6.30
2019-03-31T03:12:59.835Z,6.20
2019-03-31T03:19:04.380Z,6.20
2019-03-31T03:25:09.175Z,6.20
2019-03-31T03:31:16.401Z,6.20
2019-03-31T03:37:20.197Z,6.10
2019-03-31T03:43:24.778Z,5.90
2019-03-31T03:49:29.312Z,5.80
2019-03-31T03:55:33.896Z,5.70
2019-03-31T04:01:38.517Z,5.70
2019-03-31T04:07:43.307Z,5.70
2019-03-31T04:13:47.931Z,5.70
2019-03-31T04:19:52.481Z,5.80
2019-03-31T04:25:57.046Z,5.80
2019-03-31T04:32:01.656Z,5.60
2019-03-31T04:38:06.195Z,5.60
2019-03-31T04:44:10.768Z,5.40
2019-03-31T04:50:15.554Z,5.40
2019-03-31T04:56:20.175Z,5.40
2019-03-31T05:02:27.207Z,5.40
2019-03-31T05:08:31.095Z,5.50
2019-03-31T05:14:35.655Z,5.60
2019-03-31T05:20:40.224Z,5.70
2019-03-31T05:26:44.850Z,6.00
2019-03-31T05:32:49.489Z,6.20
2019-03-31T05:38:54.102Z,6.40
2019-03-31T05:44:58.646Z,6.50
2019-03-31T05:51:03.203Z,6.60
2019-03-31T05:57:07.759Z,6.80
2019-03-31T06:03:12.303Z,6.80
2019-03-31T06:09:16.882Z,6.90
2019-03-31T06:15:21.424Z,6.90
2019-03-31T06:21:29.045Z,6.90
2019-03-31T06:27:32.420Z,6.90
2019-03-31T06:33:37.001Z,6.90
2019-03-31T06:39:41.540Z,6.90
2019-03-31T06:45:46.124Z,7.00
2019-03-31T06:51:50.678Z,7.10
2019-03-31T06:57:55.307Z,7.10
2019-03-31T07:03:59.912Z,7.20
2019-03-31T07:10:06.834Z,7.30
2019-03-31T07:16:11.400Z,7.30
2019-03-31T07:22:15.980Z,7.20
2019-03-31T07:28:20.529Z,7.10
2019-03-31T07:34:25.154Z,7.20
2019-03-31T07:40:29.904Z,7.20
2019-03-31T07:46:34.557Z,7.30
2019-03-31T07:52:39.271Z,7.60
2019-03-31T07:58:43.840Z,8.30
2019-03-31T08:04:48.407Z,8.80
2019-03-31T08:10:52.981Z,8.90
2019-03-31T08:16:57.574Z,9.30
2019-03-31T08:23:02.141Z,9.80
2019-03-31T08:29:06.872Z,9.90
2019-03-31T08:35:12.076Z,9.80
2019-03-31T08:41:16.647Z,9.70
2019-03-31T08:47:22.045Z,9.70
2019-03-31T08:53:27.099Z,10.60
2019-03-31T08:59:31.675Z,11.60
2019-03-31T09:05:36.327Z,11.90
2019-03-31T09:11:41.011Z,12.30
2019-03-31T09:17:45.607Z,12.20
2019-03-31T09:23:50.274Z,12.50
2019-03-31T09:29:54.910Z,12.10
2019-03-31T09:35:59.495Z,11.30
2019-03-31T09:42:04.196Z,11.20
2019-03-31T09:48:08.861Z,11.10
2019-03-31T09:54:13.453Z,11.00
2019-03-31T10:00:45.874Z,10.90
2019-03-31T10:06:50.414Z,10.80
2019-03-31T10:12:54.982Z,10.60
2019-03-31T10:18:59.552Z,10.30
2019-03-31T10:25:06.347Z,10.10
2019-03-31T10:31:10.954Z,10.10
2019-03-31T10:37:15.511Z,10.10
2019-03-31T10:43:20.175Z,10.00
2019-03-31T10:49:24.817Z,9.90
2019-03-31T10:55:29.372Z,10.10
2019-03-31T11:01:33.967Z,10.50
2019-03-31T11:07:38.586Z,10.60
2019-03-31T11:13:43.163Z,10.60
2019-03-31T11:19:47.739Z,10.40
2019-03-31T11:25:52.462Z,10.00
2019-03-31T11:31:57.056Z,10.20
2019-03-31T11:38:01.698Z,10.30
2019-03-31T11:44:06.423Z,10.80
2019-03-31T11:50:12.003Z,10.90
2019-03-31T11:56:16.641Z,10.90
2019-03-31T12:02:27.272Z,11.20
2019-03-31T12:08:28.445Z,11.30
2019-03-31T12:14:33.012Z,11.50
2019-03-31T12:20:37.738Z,12.00
2019-03-31T12:26:42.355Z,12.70
2019-03-31T12:32:46.912Z,13.90
2019-03-31T12:38:53.855Z,14.00
2019-03-31T12:44:57.789Z,13.50
2019-03-31T12:51:02.346Z,14.00
2019-03-31T12:57:06.909Z,14.20
2019-03-31T13:03:11.538Z,13.50
2019-03-31T13:09:16.086Z,13.60
2019-03-31T13:15:20.719Z,15.00
2019-03-31T13:21:25.426Z,16.00
2019-03-31T13:27:29.984Z,18.40
2019-03-31T13:33:34.618Z,19.20
2019-03-31T13:39:39.194Z,18.40
2019-03-31T13:45:43.867Z,16.30
2019-03-31T13:51:48.445Z,14.70
2019-03-31T13:57:54.206Z,13.90
2019-03-31T14:03:59.355Z,13.10
2019-03-31T14:10:05.933Z,13.50
2019-03-31T14:16:11.479Z,13.70
2019-03-31T14:22:16.030Z,13.90
2019-03-31T14:28:20.586Z,15.00
2019-03-31T14:34:25.213Z,16.60
2019-03-31T14:40:29.864Z,18.30
2019-03-31T14:46:34.463Z,19.50
2019-03-31T14:52:39.032Z,20.30
2019-03-31T14:58:45.130Z,20.80
2019-03-31T15:04:49.773Z,20.80
2019-03-31T15:10:54.340Z,19.30
2019-03-31T15:16:58.918Z,19.30
2019-03-31T15:23:03.478Z,18.50
2019-03-31T15:29:08.063Z,16.60
2019-03-31T15:35:12.869Z,15.00
2019-03-31T15:41:21.274Z,15.10
2019-03-31T15:47:23.739Z,15.30
2019-03-31T15:53:28.424Z,15.60
2019-03-31T15:59:32.987Z,15.60
2019-03-31T16:05:37.618Z,15.70
2019-03-31T16:11:53.234Z,15.90
2019-03-31T16:17:48.595Z,15.20
2019-03-31T16:23:53.229Z,14.40
2019-03-31T16:29:57.867Z,13.80
2019-03-31T16:36:02.425Z,13.80
2019-03-31T16:42:07.171Z,13.30
2019-03-31T16:48:11.804Z,13.10
2019-03-31T16:54:16.453Z,13.30
2019-03-31T17:00:21.447Z,13.70
2019-03-31T17:06:26.014Z,14.90
2019-03-31T17:12:30.604Z,16.00
2019-03-31T17:18:35.157Z,15.80
2019-03-31T17:24:39.811Z,15.30
2019-03-31T17:30:44.479Z,14.60
2019-03-31T17:36:49.047Z,14.20
2019-03-31T17:42:53.627Z,13.70
2019-03-31T17:48:58.203Z,13.10
2019-03-31T17:55:02.947Z,12.10
2019-03-31T18:01:07.578Z,11.20
2019-03-31T18:07:12.164Z,10.70
2019-03-31T18:13:16.800Z,10.20
2019-03-31T18:19:21.353Z,9.80
2019-03-31T18:25:25.982Z,9.50
2019-03-31T18:31:30.553Z,9.40
2019-03-31T18:37:35.186Z,9.00
2019-03-31T18:43:50.558Z,8.70
2019-03-31T18:49:46.170Z,8.20
2019-03-31T18:55:58.117Z,7.90
2019-03-31T19:02:20.396Z,7.70
2019-03-31T19:08:42.859Z,7.30
2019-03-31T19:15:01.081Z,7.30
2019-03-31T19:21:16.090Z,7.20
2019-03-31T19:27:38.643Z,7.20
2019-03-31T19:33:48.772Z,7.20
2019-03-31T19:39:58.989Z,7.10
2019-03-31T19:46:23.347Z,6.70
2019-03-31T19:52:32.250Z,6.50
2019-03-31T19:58:42.545Z,6.50
2019-03-31T20:04:50.603Z,6.50
2019-03-31T20:11:05.822Z,6.20
2019-03-31T20:17:20.749Z,6.10
2019-03-31T20:23:35.978Z,5.80
2019-03-31T20:29:42.219Z,5.70
2019-03-31T20:35:48.587Z,5.50
2019-03-31T20:41:56.300Z,5.50
2019-03-31T20:48:00.858Z,5.40
2019-03-31T20:54:05.647Z,5.20
2019-03-31T21:00:11.680Z,5.10
2019-03-31T21:06:16.223Z,5.00
2019-03-31T21:12:27.902Z,4.90
2019-03-31T21:18:32.574Z,4.90
2019-03-31T21:24:37.158Z,4.90
2019-03-31T21:30:41.704Z,4.70
2019-03-31T21:36:46.330Z,4.40
2019-03-31T21:42:50.904Z,4.10
2019-03-31T21:48:55.482Z,4.10
2019-03-31T21:55:00.101Z,4.00
2019-03-31T22:01:05.164Z,3.90
2019-03-31T22:07:09.796Z,3.80
2019-03-31T22:13:14.421Z,3.70
2019-03-31T22:19:18.986Z,3.60
2019-03-31T22:25:23.547Z,3.50
2019-03-31T22:31:28.131Z,3.70
2019-03-31T22:37:32.767Z,3.80
2019-03-31T22:43:37.384Z,4.00
2019-03-31T22:49:41.937Z,4.10
2019-03-31T22:55:46.513Z,4.00
2019-03-31T23:01:51.216Z,3.90
2019-03-31T23:07:55.853Z,3.80
2019-03-31T23:14:00.418Z,3.70
2019-03-31T23:20:05.969Z,3.40
2019-03-31T23:26:10.554Z,3.20
2019-03-31T23:32:15.123Z,2.90
2019-03-31T23:38:19.691Z,2.80
2019-03-31T23:44:24.316Z,2.70
2019-03-31T23:50:28.881Z,2.50
2019-03-31T23:56:34.198Z,2.40
